sensor_id;sensor_type;location;lat;lon;timestamp;temperature;humidity
24560;DHT22;12727;49.934;8.656;2022-11-20T00:01:22;1.90;99.90
24560;DHT22;12727;49.934;8.656;2022-11-20T00:03:48;2.00;99.90
24560;DHT22;12727;49.934;8.656;2022-11-20T00:06:18;2.00;99.90
24560;DHT22;12727;49.934;8.656;2022-11-20T00:08:44;2.00;99.90
24560;DHT22;12727;49.934;8.656;2022-11-20T00:11:18;2.10;99.90
24560;DHT22;12727;49.934;8.656;2022-11-20T00:13:45;2.10;99.90
24560;DHT22;12727;49.934;8.656;2022-11-20T00:16:13;2.50;99.90
24560;DHT22;12727;49.934;8.656;2022-11-20T00:18:39;2.40;99.90
24560;DHT22;12727;49.934;8.656;2022-11-20T00:21:07;2.40;99.90
24560;DHT22;12727;49.934;8.656;2022-11-20T00:23:33;2.30;99.90
24560;DHT22;12727;49.934;8.656;2022-11-20T00:26:07;2.20;99.90
24560;DHT22;12727;49.934;8.656;2022-11-20T00:28:34;2.20;99.90
24560;DHT22;12727;49.934;8.656;2022-11-20T00:31:08;2.20;99.90
24560;DHT22;12727;49.934;8.656;2022-11-20T00:33:34;2.40;99.90
24560;DHT22;12727;49.934;8.656;2022-11-20T00:36:01;2.40;99.90
24560;DHT22;12727;49.934;8.656;2022-11-20T00:38:27;2.50;99.90
24560;DHT22;12727;49.934;8.656;2022-11-20T00:40:57;2.80;99.90
24560;DHT22;12727;49.934;8.656;2022-11-20T00:43:23;2.80;99.90
24560;DHT22;12727;49.934;8.656;2022-11-20T00:45:49;2.50;99.90
24560;DHT22;12727;49.934;8.656;2022-11-20T00:48:15;2.30;99.90
24560;DHT22;12727;49.934;8.656;2022-11-20T00:50:41;2.20;99.90
24560;DHT22;12727;49.934;8.656;2022-11-20T00:53:06;2.20;99.90
24560;DHT22;12727;49.934;8.656;2022-11-20T00:55:32;2.40;99.90
24560;DHT22;12727;49.934;8.656;2022-11-20T00:57:57;2.60;99.90
24560;DHT22;12727;49.934;8.656;2022-11-20T01:00:23;2.90;99.90
24560;DHT22;12727;49.934;8.656;2022-11-20T01:02:49;2.70;99.90
24560;DHT22;12727;49.934;8.656;2022-11-20T01:05:14;2.50;99.90
24560;DHT22;12727;49.934;8.656;2022-11-20T01:07:40;2.40;99.90
24560;DHT22;12727;49.934;8.656;2022-11-20T01:10:06;2.20;99.90
24560;DHT22;12727;49.934;8.656;2022-11-20T01:12:31;2.10;99.90
24560;DHT22;12727;49.934;8.656;2022-11-20T01:14:57;2.20;99.90
24560;DHT22;12727;49.934;8.656;2022-11-20T01:17:22;2.80;99.90
24560;DHT22;12727;49.934;8.656;2022-11-20T01:19:49;2.70;99.90
24560;DHT22;12727;49.934;8.656;2022-11-20T01:22:15;2.40;99.90
24560;DHT22;12727;49.934;8.656;2022-11-20T01:24:41;2.20;99.90
24560;DHT22;12727;49.934;8.656;2022-11-20T01:27:06;2.20;99.90
24560;DHT22;12727;49.934;8.656;2022-11-20T01:29:32;2.20;99.90
24560;DHT22;12727;49.934;8.656;2022-11-20T01:31:57;2.30;99.90
24560;DHT22;12727;49.934;8.656;2022-11-20T01:34:23;2.40;99.90
24560;DHT22;12727;49.934;8.656;2022-11-20T01:36:49;2.60;99.90
24560;DHT22;12727;49.934;8.656;2022-11-20T01:39:20;2.40;99.90
24560;DHT22;12727;49.934;8.656;2022-11-20T01:41:47;2.50;99.90
24560;DHT22;12727;49.934;8.656;2022-11-20T01:44:51;2.40;99.90
24560;DHT22;12727;49.934;8.656;2022-11-20T01:47:22;2.30;99.90
24560;DHT22;12727;49.934;8.656;2022-11-20T01:49:52;2.60;99.90
24560;DHT22;12727;49.934;8.656;2022-11-20T01:52:23;2.60;99.90
24560;DHT22;12727;49.934;8.656;2022-11-20T01:54:59;2.20;99.90
24560;DHT22;12727;49.934;8.656;2022-11-20T01:57:28;2.10;99.90
24560;DHT22;12727;49.934;8.656;2022-11-20T01:59:59;2.50;99.90
24560;DHT22;12727;49.934;8.656;2022-11-20T02:02:26;2.50;99.90
24560;DHT22;12727;49.934;8.656;2022-11-20T02:04:54;2.30;99.90
24560;DHT22;12727;49.934;8.656;2022-11-20T02:07:23;2.50;99.90
24560;DHT22;12727;49.934;8.656;2022-11-20T02:09:50;2.40;99.90
24560;DHT22;12727;49.934;8.656;2022-11-20T02:12:15;2.20;99.90
24560;DHT22;12727;49.934;8.656;2022-11-20T02:14:59;2.10;99.90
24560;DHT22;12727;49.934;8.656;2022-11-20T02:17:25;2.20;99.90
24560;DHT22;12727;49.934;8.656;2022-11-20T02:19:51;2.30;99.90
24560;DHT22;12727;49.934;8.656;2022-11-20T02:22:35;2.60;99.90
24560;DHT22;12727;49.934;8.656;2022-11-20T02:25:04;2.40;99.90
24560;DHT22;12727;49.934;8.656;2022-11-20T02:27:30;2.50;99.90
24560;DHT22;12727;49.934;8.656;2022-11-20T02:30:00;2.20;99.90
24560;DHT22;12727;49.934;8.656;2022-11-20T02:32:28;2.20;99.90
24560;DHT22;12727;49.934;8.656;2022-11-20T02:34:54;2.50;99.90
24560;DHT22;12727;49.934;8.656;2022-11-20T02:37:21;2.50;99.90
24560;DHT22;12727;49.934;8.656;2022-11-20T02:39:49;2.50;99.90
24560;DHT22;12727;49.934;8.656;2022-11-20T02:42:15;2.70;99.90
24560;DHT22;12727;49.934;8.656;2022-11-20T02:44:40;2.50;99.90
24560;DHT22;12727;49.934;8.656;2022-11-20T02:47:06;2.30;99.90
24560;DHT22;12727;49.934;8.656;2022-11-20T02:49:32;2.20;99.90
24560;DHT22;12727;49.934;8.656;2022-11-20T02:51:58;2.50;99.90
24560;DHT22;12727;49.934;8.656;2022-11-20T02:54:24;2.80;99.90
24560;DHT22;12727;49.934;8.656;2022-11-20T02:56:49;2.70;99.90
24560;DHT22;12727;49.934;8.656;2022-11-20T02:59:15;2.60;99.90
24560;DHT22;12727;49.934;8.656;2022-11-20T03:01:40;2.60;99.90
24560;DHT22;12727;49.934;8.656;2022-11-20T03:04:06;2.70;99.90
24560;DHT22;12727;49.934;8.656;2022-11-20T03:06:32;3.00;99.90
24560;DHT22;12727;49.934;8.656;2022-11-20T03:08:57;3.40;99.90
24560;DHT22;12727;49.934;8.656;2022-11-20T03:11:23;3.30;99.90
24560;DHT22;12727;49.934;8.656;2022-11-20T03:13:48;2.90;99.90
24560;DHT22;12727;49.934;8.656;2022-11-20T03:16:20;3.10;99.90
24560;DHT22;12727;49.934;8.656;2022-11-20T03:18:46;2.80;99.90
24560;DHT22;12727;49.934;8.656;2022-11-20T03:21:12;2.50;99.90
24560;DHT22;12727;49.934;8.656;2022-11-20T03:23:39;2.40;99.90
24560;DHT22;12727;49.934;8.656;2022-11-20T03:26:09;2.70;99.90
24560;DHT22;12727;49.934;8.656;2022-11-20T03:28:35;2.60;99.90
24560;DHT22;12727;49.934;8.656;2022-11-20T03:31:09;2.90;99.90
24560;DHT22;12727;49.934;8.656;2022-11-20T03:33:35;3.20;99.90
24560;DHT22;12727;49.934;8.656;2022-11-20T03:36:02;3.20;99.90
24560;DHT22;12727;49.934;8.656;2022-11-20T03:38:31;2.80;99.90
24560;DHT22;12727;49.934;8.656;2022-11-20T03:41:21;3.00;99.90
24560;DHT22;12727;49.934;8.656;2022-11-20T03:43:52;3.10;99.90
24560;DHT22;12727;49.934;8.656;2022-11-20T03:46:17;3.00;99.90
24560;DHT22;12727;49.934;8.656;2022-11-20T03:48:43;3.10;99.90
24560;DHT22;12727;49.934;8.656;2022-11-20T03:51:12;3.20;99.90
24560;DHT22;12727;49.934;8.656;2022-11-20T03:53:39;2.90;99.90
24560;DHT22;12727;49.934;8.656;2022-11-20T03:56:06;2.70;99.90
24560;DHT22;12727;49.934;8.656;2022-11-20T03:58:33;2.70;99.90
24560;DHT22;12727;49.934;8.656;2022-11-20T04:01:05;2.80;99.90
24560;DHT22;12727;49.934;8.656;2022-11-20T04:03:31;2.80;99.90
24560;DHT22;12727;49.934;8.656;2022-11-20T04:06:02;2.60;99.90
24560;DHT22;12727;49.934;8.656;2022-11-20T04:08:28;3.00;99.90
24560;DHT22;12727;49.934;8.656;2022-11-20T04:10:54;3.20;99.90
24560;DHT22;12727;49.934;8.656;2022-11-20T04:13:19;3.00;99.90
24560;DHT22;12727;49.934;8.656;2022-11-20T04:15:45;3.10;99.90
24560;DHT22;12727;49.934;8.656;2022-11-20T04:18:10;3.60;99.90
24560;DHT22;12727;49.934;8.656;2022-11-20T04:20:36;3.60;99.90
24560;DHT22;12727;49.934;8.656;2022-11-20T04:23:03;3.70;99.90
24560;DHT22;12727;49.934;8.656;2022-11-20T04:25:28;3.60;99.90
24560;DHT22;12727;49.934;8.656;2022-11-20T04:27:54;3.20;99.90
24560;DHT22;12727;49.934;8.656;2022-11-20T04:30:20;2.90;99.90
24560;DHT22;12727;49.934;8.656;2022-11-20T04:32:45;2.80;99.90
24560;DHT22;12727;49.934;8.656;2022-11-20T04:35:11;2.60;99.90
24560;DHT22;12727;49.934;8.656;2022-11-20T04:37:36;2.50;99.90
24560;DHT22;12727;49.934;8.656;2022-11-20T04:40:04;2.40;99.90
24560;DHT22;12727;49.934;8.656;2022-11-20T04:42:29;2.40;99.90
24560;DHT22;12727;49.934;8.656;2022-11-20T04:44:55;2.40;99.90
24560;DHT22;12727;49.934;8.656;2022-11-20T04:47:21;2.40;99.90
24560;DHT22;12727;49.934;8.656;2022-11-20T04:49:47;2.40;99.90
24560;DHT22;12727;49.934;8.656;2022-11-20T04:52:13;2.30;99.90
24560;DHT22;12727;49.934;8.656;2022-11-20T04:54:38;2.40;99.90
24560;DHT22;12727;49.934;8.656;2022-11-20T04:57:04;2.50;99.90
24560;DHT22;12727;49.934;8.656;2022-11-20T04:59:29;2.90;99.90
24560;DHT22;12727;49.934;8.656;2022-11-20T05:01:55;3.30;99.90
24560;DHT22;12727;49.934;8.656;2022-11-20T05:04:20;3.50;99.90
24560;DHT22;12727;49.934;8.656;2022-11-20T05:06:46;3.30;99.90
24560;DHT22;12727;49.934;8.656;2022-11-20T05:09:12;3.50;99.90
24560;DHT22;12727;49.934;8.656;2022-11-20T05:11:38;3.40;99.90
24560;DHT22;12727;49.934;8.656;2022-11-20T05:14:03;3.00;99.90
24560;DHT22;12727;49.934;8.656;2022-11-20T05:16:29;2.80;99.90
24560;DHT22;12727;49.934;8.656;2022-11-20T05:18:55;2.80;99.90
24560;DHT22;12727;49.934;8.656;2022-11-20T05:21:21;3.00;99.90
24560;DHT22;12727;49.934;8.656;2022-11-20T05:23:47;3.00;99.90
24560;DHT22;12727;49.934;8.656;2022-11-20T05:26:22;3.20;99.90
24560;DHT22;12727;49.934;8.656;2022-11-20T05:28:48;3.50;99.90
24560;DHT22;12727;49.934;8.656;2022-11-20T05:31:17;3.20;99.90
24560;DHT22;12727;49.934;8.656;2022-11-20T05:33:43;3.00;99.90
24560;DHT22;12727;49.934;8.656;2022-11-20T05:36:11;3.10;99.90
24560;DHT22;12727;49.934;8.656;2022-11-20T05:38:37;3.30;99.90
24560;DHT22;12727;49.934;8.656;2022-11-20T05:41:11;3.50;99.90
24560;DHT22;12727;49.934;8.656;2022-11-20T05:43:39;3.70;99.90
24560;DHT22;12727;49.934;8.656;2022-11-20T05:46:05;3.70;99.90
24560;DHT22;12727;49.934;8.656;2022-11-20T05:48:32;3.20;99.90
24560;DHT22;12727;49.934;8.656;2022-11-20T05:50:59;3.10;99.90
24560;DHT22;12727;49.934;8.656;2022-11-20T05:53:25;3.30;99.90
24560;DHT22;12727;49.934;8.656;2022-11-20T05:55:58;3.50;99.90
24560;DHT22;12727;49.934;8.656;2022-11-20T05:58:24;3.70;99.90
24560;DHT22;12727;49.934;8.656;2022-11-20T06:00:50;3.80;99.90
24560;DHT22;12727;49.934;8.656;2022-11-20T06:03:15;3.70;99.90
24560;DHT22;12727;49.934;8.656;2022-11-20T06:05:41;3.50;99.90
24560;DHT22;12727;49.934;8.656;2022-11-20T06:08:06;3.20;99.90
24560;DHT22;12727;49.934;8.656;2022-11-20T06:10:32;3.30;99.90
24560;DHT22;12727;49.934;8.656;2022-11-20T06:12:58;3.40;99.90
24560;DHT22;12727;49.934;8.656;2022-11-20T06:15:24;3.60;99.90
24560;DHT22;12727;49.934;8.656;2022-11-20T06:17:53;3.50;99.90
24560;DHT22;12727;49.934;8.656;2022-11-20T06:20:20;3.70;99.90
24560;DHT22;12727;49.934;8.656;2022-11-20T06:22:45;3.40;99.90
24560;DHT22;12727;49.934;8.656;2022-11-20T06:25:11;3.10;99.90
24560;DHT22;12727;49.934;8.656;2022-11-20T06:27:36;3.00;99.90
24560;DHT22;12727;49.934;8.656;2022-11-20T06:30:03;3.10;99.90
24560;DHT22;12727;49.934;8.656;2022-11-20T06:32:28;3.10;99.90
24560;DHT22;12727;49.934;8.656;2022-11-20T06:34:54;3.20;99.90
24560;DHT22;12727;49.934;8.656;2022-11-20T06:37:21;3.40;99.90
24560;DHT22;12727;49.934;8.656;2022-11-20T06:39:46;3.40;99.90
24560;DHT22;12727;49.934;8.656;2022-11-20T06:42:12;3.20;99.90
24560;DHT22;12727;49.934;8.656;2022-11-20T06:44:37;3.20;99.90
24560;DHT22;12727;49.934;8.656;2022-11-20T06:47:03;3.40;99.90
24560;DHT22;12727;49.934;8.656;2022-11-20T06:49:29;3.50;99.90
24560;DHT22;12727;49.934;8.656;2022-11-20T06:51:55;3.70;99.90
24560;DHT22;12727;49.934;8.656;2022-11-20T06:54:20;3.70;99.90
24560;DHT22;12727;49.934;8.656;2022-11-20T06:56:47;3.60;99.90
24560;DHT22;12727;49.934;8.656;2022-11-20T06:59:13;3.40;99.90
24560;DHT22;12727;49.934;8.656;2022-11-20T07:01:38;3.40;99.90
24560;DHT22;12727;49.934;8.656;2022-11-20T07:04:04;3.60;99.90
24560;DHT22;12727;49.934;8.656;2022-11-20T07:06:30;3.60;99.90
24560;DHT22;12727;49.934;8.656;2022-11-20T07:08:55;3.90;99.90
24560;DHT22;12727;49.934;8.656;2022-11-20T07:11:23;3.90;99.90
24560;DHT22;12727;49.934;8.656;2022-11-20T07:13:48;3.40;99.90
24560;DHT22;12727;49.934;8.656;2022-11-20T07:16:14;3.20;99.90
24560;DHT22;12727;49.934;8.656;2022-11-20T07:18:40;3.30;99.90
24560;DHT22;12727;49.934;8.656;2022-11-20T07:21:08;3.40;99.90
24560;DHT22;12727;49.934;8.656;2022-11-20T07:23:34;3.60;99.90
24560;DHT22;12727;49.934;8.656;2022-11-20T07:26:07;3.70;99.90
24560;DHT22;12727;49.934;8.656;2022-11-20T07:28:34;3.80;99.90
24560;DHT22;12727;49.934;8.656;2022-11-20T07:31:00;3.30;99.90
24560;DHT22;12727;49.934;8.656;2022-11-20T07:33:25;3.10;99.90
24560;DHT22;12727;49.934;8.656;2022-11-20T07:35:51;3.30;99.90
24560;DHT22;12727;49.934;8.656;2022-11-20T07:38:19;3.50;99.90
24560;DHT22;12727;49.934;8.656;2022-11-20T07:40:45;3.50;99.90
24560;DHT22;12727;49.934;8.656;2022-11-20T07:43:10;3.70;99.90
24560;DHT22;12727;49.934;8.656;2022-11-20T07:45:36;3.50;99.90
24560;DHT22;12727;49.934;8.656;2022-11-20T07:48:02;3.40;99.90
24560;DHT22;12727;49.934;8.656;2022-11-20T07:50:27;3.50;99.90
24560;DHT22;12727;49.934;8.656;2022-11-20T07:53:00;3.60;99.90
24560;DHT22;12727;49.934;8.656;2022-11-20T07:55:26;3.50;99.90
24560;DHT22;12727;49.934;8.656;2022-11-20T07:57:56;3.70;99.90
24560;DHT22;12727;49.934;8.656;2022-11-20T08:00:22;3.70;99.90
24560;DHT22;12727;49.934;8.656;2022-11-20T08:02:48;3.30;99.90
24560;DHT22;12727;49.934;8.656;2022-11-20T08:05:13;3.10;99.90
24560;DHT22;12727;49.934;8.656;2022-11-20T08:07:40;3.30;99.90
24560;DHT22;12727;49.934;8.656;2022-11-20T08:10:08;3.30;99.90
24560;DHT22;12727;49.934;8.656;2022-11-20T08:12:34;3.50;99.90
24560;DHT22;12727;49.934;8.656;2022-11-20T08:15:19;3.40;99.90
24560;DHT22;12727;49.934;8.656;2022-11-20T08:17:44;3.80;99.90
24560;DHT22;12727;49.934;8.656;2022-11-20T08:20:10;3.80;99.90
24560;DHT22;12727;49.934;8.656;2022-11-20T08:22:36;3.50;99.90
24560;DHT22;12727;49.934;8.656;2022-11-20T08:25:01;3.40;99.90
24560;DHT22;12727;49.934;8.656;2022-11-20T08:27:27;3.30;99.90
24560;DHT22;12727;49.934;8.656;2022-11-20T08:29:53;3.30;99.90
24560;DHT22;12727;49.934;8.656;2022-11-20T08:32:18;3.70;99.90
24560;DHT22;12727;49.934;8.656;2022-11-20T08:34:44;3.70;99.90
24560;DHT22;12727;49.934;8.656;2022-11-20T08:37:09;3.70;99.90
24560;DHT22;12727;49.934;8.656;2022-11-20T08:39:35;3.70;99.90
24560;DHT22;12727;49.934;8.656;2022-11-20T08:42:00;3.70;99.90
24560;DHT22;12727;49.934;8.656;2022-11-20T08:44:26;3.90;99.90
24560;DHT22;12727;49.934;8.656;2022-11-20T08:46:52;4.00;99.90
24560;DHT22;12727;49.934;8.656;2022-11-20T08:49:17;3.90;99.90
24560;DHT22;12727;49.934;8.656;2022-11-20T08:51:43;3.80;99.90
24560;DHT22;12727;49.934;8.656;2022-11-20T08:54:09;4.00;99.90
24560;DHT22;12727;49.934;8.656;2022-11-20T08:56:35;4.10;99.90
24560;DHT22;12727;49.934;8.656;2022-11-20T08:59:00;4.00;99.90
24560;DHT22;12727;49.934;8.656;2022-11-20T09:01:26;4.00;99.90
24560;DHT22;12727;49.934;8.656;2022-11-20T09:03:52;4.10;99.90
24560;DHT22;12727;49.934;8.656;2022-11-20T09:06:18;4.00;99.90
24560;DHT22;12727;49.934;8.656;2022-11-20T09:08:43;4.50;99.90
24560;DHT22;12727;49.934;8.656;2022-11-20T09:11:10;4.80;99.90
24560;DHT22;12727;49.934;8.656;2022-11-20T09:13:36;5.50;99.90
24560;DHT22;12727;49.934;8.656;2022-11-20T09:16:06;6.40;99.90
24560;DHT22;12727;49.934;8.656;2022-11-20T09:18:34;6.60;99.90
24560;DHT22;12727;49.934;8.656;2022-11-20T09:21:08;6.50;99.90
24560;DHT22;12727;49.934;8.656;2022-11-20T09:23:36;5.90;99.90
24560;DHT22;12727;49.934;8.656;2022-11-20T09:26:03;5.40;99.90
24560;DHT22;12727;49.934;8.656;2022-11-20T09:28:29;5.10;99.90
24560;DHT22;12727;49.934;8.656;2022-11-20T09:30:55;4.80;99.90
24560;DHT22;12727;49.934;8.656;2022-11-20T09:33:21;4.50;99.90
24560;DHT22;12727;49.934;8.656;2022-11-20T09:35:46;4.30;99.90
24560;DHT22;12727;49.934;8.656;2022-11-20T09:38:12;4.30;99.90
24560;DHT22;12727;49.934;8.656;2022-11-20T09:40:45;4.20;99.90
24560;DHT22;12727;49.934;8.656;2022-11-20T09:46:05;4.20;99.90
24560;DHT22;12727;49.934;8.656;2022-11-20T09:51:35;4.20;99.90
24560;DHT22;12727;49.934;8.656;2022-11-20T09:56:42;4.10;99.90
24560;DHT22;12727;49.934;8.656;2022-11-20T10:00:02;4.10;99.90
24560;DHT22;12727;49.934;8.656;2022-11-20T10:05:12;4.20;99.90
24560;DHT22;12727;49.934;8.656;2022-11-20T10:08:02;4.10;99.90
24560;DHT22;12727;49.934;8.656;2022-11-20T10:10:35;4.20;99.90
24560;DHT22;12727;49.934;8.656;2022-11-20T10:13:34;4.10;99.90
24560;DHT22;12727;49.934;8.656;2022-11-20T10:16:16;4.00;99.90
24560;DHT22;12727;49.934;8.656;2022-11-20T10:18:52;4.00;99.90
24560;DHT22;12727;49.934;8.656;2022-11-20T10:26:30;4.10;99.90
24560;DHT22;12727;49.934;8.656;2022-11-20T10:29:14;4.10;99.90
24560;DHT22;12727;49.934;8.656;2022-11-20T10:31:43;4.10;99.90
24560;DHT22;12727;49.934;8.656;2022-11-20T10:37:14;4.20;99.90
24560;DHT22;12727;49.934;8.656;2022-11-20T10:42:17;4.00;99.90
24560;DHT22;12727;49.934;8.656;2022-11-20T10:44:51;4.00;99.90
24560;DHT22;12727;49.934;8.656;2022-11-20T10:47:29;4.20;99.90
24560;DHT22;12727;49.934;8.656;2022-11-20T10:49:57;4.20;99.90
24560;DHT22;12727;49.934;8.656;2022-11-20T10:52:45;4.40;99.90
24560;DHT22;12727;49.934;8.656;2022-11-20T11:00:38;4.10;99.90
24560;DHT22;12727;49.934;8.656;2022-11-20T11:03:20;4.10;99.90
24560;DHT22;12727;49.934;8.656;2022-11-20T11:05:53;4.00;99.90
24560;DHT22;12727;49.934;8.656;2022-11-20T11:08:20;4.00;99.90
24560;DHT22;12727;49.934;8.656;2022-11-20T11:10:55;4.00;99.90
24560;DHT22;12727;49.934;8.656;2022-11-20T11:13:24;4.10;99.90
24560;DHT22;12727;49.934;8.656;2022-11-20T11:15:50;4.00;99.90
24560;DHT22;12727;49.934;8.656;2022-11-20T11:18:31;4.00;99.90
24560;DHT22;12727;49.934;8.656;2022-11-20T11:20:59;4.00;99.90
24560;DHT22;12727;49.934;8.656;2022-11-20T11:25:59;4.20;99.90
24560;DHT22;12727;49.934;8.656;2022-11-20T11:28:26;4.40;99.90
24560;DHT22;12727;49.934;8.656;2022-11-20T11:30:53;4.70;99.90
24560;DHT22;12727;49.934;8.656;2022-11-20T11:33:22;4.80;99.90
24560;DHT22;12727;49.934;8.656;2022-11-20T11:36:18;4.70;99.90
24560;DHT22;12727;49.934;8.656;2022-11-20T11:38:45;4.60;99.90
24560;DHT22;12727;49.934;8.656;2022-11-20T11:41:23;4.50;99.90
24560;DHT22;12727;49.934;8.656;2022-11-20T11:44:12;4.40;99.90
24560;DHT22;12727;49.934;8.656;2022-11-20T11:46:59;4.40;99.90
24560;DHT22;12727;49.934;8.656;2022-11-20T11:49:25;4.40;99.90
24560;DHT22;12727;49.934;8.656;2022-11-20T11:52:14;4.40;99.90
24560;DHT22;12727;49.934;8.656;2022-11-20T11:54:53;4.40;99.90
24560;DHT22;12727;49.934;8.656;2022-11-20T11:57:26;4.50;99.90
24560;DHT22;12727;49.934;8.656;2022-11-20T12:00:20;4.70;99.90
24560;DHT22;12727;49.934;8.656;2022-11-20T12:05:47;4.80;99.90
24560;DHT22;12727;49.934;8.656;2022-11-20T12:11:39;5.10;99.90
24560;DHT22;12727;49.934;8.656;2022-11-20T12:16:45;5.50;99.90
24560;DHT22;12727;49.934;8.656;2022-11-20T12:19:13;5.30;99.90
24560;DHT22;12727;49.934;8.656;2022-11-20T12:25:11;5.20;99.90
24560;DHT22;12727;49.934;8.656;2022-11-20T12:27:43;5.30;99.90
24560;DHT22;12727;49.934;8.656;2022-11-20T12:30:18;5.20;99.90
24560;DHT22;12727;49.934;8.656;2022-11-20T12:33:22;5.20;99.90
24560;DHT22;12727;49.934;8.656;2022-11-20T12:39:01;5.50;99.90
24560;DHT22;12727;49.934;8.656;2022-11-20T12:41:54;5.50;99.90
24560;DHT22;12727;49.934;8.656;2022-11-20T12:52:53;5.30;99.90
24560;DHT22;12727;49.934;8.656;2022-11-20T12:58:29;5.10;99.90
24560;DHT22;12727;49.934;8.656;2022-11-20T13:01:25;5.00;99.90
24560;DHT22;12727;49.934;8.656;2022-11-20T13:06:50;5.20;99.90
24560;DHT22;12727;49.934;8.656;2022-11-20T13:09:23;5.30;99.90
24560;DHT22;12727;49.934;8.656;2022-11-20T13:14:46;5.60;99.90
24560;DHT22;12727;49.934;8.656;2022-11-20T13:19:52;5.60;99.90
24560;DHT22;12727;49.934;8.656;2022-11-20T13:22:26;5.60;99.90
24560;DHT22;12727;49.934;8.656;2022-11-20T13:24:52;5.40;99.90
24560;DHT22;12727;49.934;8.656;2022-11-20T13:27:22;5.30;99.90
24560;DHT22;12727;49.934;8.656;2022-11-20T13:30:12;5.30;99.90
24560;DHT22;12727;49.934;8.656;2022-11-20T13:43:35;5.30;99.90
24560;DHT22;12727;49.934;8.656;2022-11-20T13:46:08;5.30;99.90
24560;DHT22;12727;49.934;8.656;2022-11-20T13:48:41;5.40;99.90
24560;DHT22;12727;49.934;8.656;2022-11-20T13:51:32;5.50;99.90
24560;DHT22;12727;49.934;8.656;2022-11-20T14:02:44;6.20;99.90
24560;DHT22;12727;49.934;8.656;2022-11-20T14:05:22;6.20;99.90
24560;DHT22;12727;49.934;8.656;2022-11-20T14:07:50;6.40;99.90
24560;DHT22;12727;49.934;8.656;2022-11-20T14:10:27;6.30;99.90
24560;DHT22;12727;49.934;8.656;2022-11-20T14:12:53;6.00;99.90
24560;DHT22;12727;49.934;8.656;2022-11-20T14:15:30;5.80;99.90
24560;DHT22;12727;49.934;8.656;2022-11-20T14:17:57;5.80;99.90
24560;DHT22;12727;49.934;8.656;2022-11-20T14:20:28;5.70;99.90
24560;DHT22;12727;49.934;8.656;2022-11-20T14:22:54;5.70;99.90
24560;DHT22;12727;49.934;8.656;2022-11-20T14:25:23;5.70;99.90
24560;DHT22;12727;49.934;8.656;2022-11-20T14:27:59;5.70;99.90
24560;DHT22;12727;49.934;8.656;2022-11-20T14:30:29;5.70;99.90
24560;DHT22;12727;49.934;8.656;2022-11-20T14:32:57;5.60;99.90
24560;DHT22;12727;49.934;8.656;2022-11-20T14:35:29;5.60;99.90
24560;DHT22;12727;49.934;8.656;2022-11-20T14:37:56;5.60;99.90
24560;DHT22;12727;49.934;8.656;2022-11-20T14:40:28;5.50;99.90
24560;DHT22;12727;49.934;8.656;2022-11-20T14:42:54;5.50;99.90
24560;DHT22;12727;49.934;8.656;2022-11-20T14:45:21;5.50;99.90
24560;DHT22;12727;49.934;8.656;2022-11-20T14:47:48;5.40;99.90
24560;DHT22;12727;49.934;8.656;2022-11-20T14:50:25;5.40;99.90
24560;DHT22;12727;49.934;8.656;2022-11-20T14:52:59;5.50;99.90
24560;DHT22;12727;49.934;8.656;2022-11-20T14:55:38;5.40;99.90
24560;DHT22;12727;49.934;8.656;2022-11-20T14:58:23;5.50;99.90
24560;DHT22;12727;49.934;8.656;2022-11-20T15:01:03;5.40;99.90
24560;DHT22;12727;49.934;8.656;2022-11-20T15:03:40;5.40;99.90
24560;DHT22;12727;49.934;8.656;2022-11-20T15:06:07;5.30;99.90
24560;DHT22;12727;49.934;8.656;2022-11-20T15:08:34;5.30;99.90
24560;DHT22;12727;49.934;8.656;2022-11-20T15:11:00;5.30;99.90
24560;DHT22;12727;49.934;8.656;2022-11-20T15:13:30;5.30;99.90
24560;DHT22;12727;49.934;8.656;2022-11-20T15:15:59;5.30;99.90
24560;DHT22;12727;49.934;8.656;2022-11-20T15:18:40;5.20;99.90
24560;DHT22;12727;49.934;8.656;2022-11-20T15:21:14;5.30;99.90
24560;DHT22;12727;49.934;8.656;2022-11-20T15:23:40;5.30;99.90
24560;DHT22;12727;49.934;8.656;2022-11-20T15:26:07;5.20;99.90
24560;DHT22;12727;49.934;8.656;2022-11-20T15:28:39;5.20;99.90
24560;DHT22;12727;49.934;8.656;2022-11-20T15:31:06;5.20;99.90
24560;DHT22;12727;49.934;8.656;2022-11-20T15:33:32;5.30;99.90
24560;DHT22;12727;49.934;8.656;2022-11-20T15:35:59;5.30;99.90
24560;DHT22;12727;49.934;8.656;2022-11-20T15:38:25;5.20;99.90
24560;DHT22;12727;49.934;8.656;2022-11-20T15:40:50;5.10;99.90
24560;DHT22;12727;49.934;8.656;2022-11-20T15:43:16;5.10;99.90
24560;DHT22;12727;49.934;8.656;2022-11-20T15:53:25;4.90;99.90
24560;DHT22;12727;49.934;8.656;2022-11-20T15:55:50;4.90;99.90
24560;DHT22;12727;49.934;8.656;2022-11-20T15:58:16;4.90;99.90
24560;DHT22;12727;49.934;8.656;2022-11-20T16:00:42;4.90;99.90
24560;DHT22;12727;49.934;8.656;2022-11-20T16:03:12;4.90;99.90
24560;DHT22;12727;49.934;8.656;2022-11-20T16:05:38;4.80;99.90
24560;DHT22;12727;49.934;8.656;2022-11-20T16:08:04;4.80;99.90
24560;DHT22;12727;49.934;8.656;2022-11-20T16:10:30;4.80;99.90
24560;DHT22;12727;49.934;8.656;2022-11-20T16:12:55;4.80;99.90
24560;DHT22;12727;49.934;8.656;2022-11-20T16:15:39;4.70;99.90
24560;DHT22;12727;49.934;8.656;2022-11-20T16:18:19;4.80;99.90
24560;DHT22;12727;49.934;8.656;2022-11-20T16:20:50;4.70;99.90
24560;DHT22;12727;49.934;8.656;2022-11-20T16:23:17;4.70;99.90
24560;DHT22;12727;49.934;8.656;2022-11-20T16:25:43;4.70;99.90
24560;DHT22;12727;49.934;8.656;2022-11-20T16:28:09;4.70;99.90
24560;DHT22;12727;49.934;8.656;2022-11-20T16:30:35;4.70;99.90
24560;DHT22;12727;49.934;8.656;2022-11-20T16:33:02;4.70;99.90
24560;DHT22;12727;49.934;8.656;2022-11-20T16:35:29;4.70;99.90
24560;DHT22;12727;49.934;8.656;2022-11-20T16:37:55;4.70;99.90
24560;DHT22;12727;49.934;8.656;2022-11-20T16:40:26;4.70;99.90
24560;DHT22;12727;49.934;8.656;2022-11-20T16:42:52;4.80;99.90
24560;DHT22;12727;49.934;8.656;2022-11-20T16:45:18;4.80;99.90
24560;DHT22;12727;49.934;8.656;2022-11-20T16:47:43;4.90;99.90
24560;DHT22;12727;49.934;8.656;2022-11-20T16:50:09;4.90;99.90
24560;DHT22;12727;49.934;8.656;2022-11-20T16:52:35;4.90;99.90
24560;DHT22;12727;49.934;8.656;2022-11-20T16:55:00;4.90;99.90
24560;DHT22;12727;49.934;8.656;2022-11-20T16:57:30;5.00;99.90
24560;DHT22;12727;49.934;8.656;2022-11-20T16:59:58;5.10;99.90
24560;DHT22;12727;49.934;8.656;2022-11-20T17:02:24;5.30;99.90
24560;DHT22;12727;49.934;8.656;2022-11-20T17:04:50;5.30;99.90
24560;DHT22;12727;49.934;8.656;2022-11-20T17:07:16;5.40;99.90
24560;DHT22;12727;49.934;8.656;2022-11-20T17:09:42;5.50;99.90
24560;DHT22;12727;49.934;8.656;2022-11-20T17:12:08;5.60;99.90
24560;DHT22;12727;49.934;8.656;2022-11-20T17:14:34;5.70;99.90
24560;DHT22;12727;49.934;8.656;2022-11-20T17:16:59;5.80;99.90
24560;DHT22;12727;49.934;8.656;2022-11-20T17:19:25;5.90;99.90
24560;DHT22;12727;49.934;8.656;2022-11-20T17:21:51;5.90;99.90
24560;DHT22;12727;49.934;8.656;2022-11-20T17:24:16;6.00;99.90
24560;DHT22;12727;49.934;8.656;2022-11-20T17:26:43;6.10;99.90
24560;DHT22;12727;49.934;8.656;2022-11-20T17:29:14;6.20;99.90